createdAt,value
2022-10-02T00:01:47.803Z,0.00
2022-10-02T00:06:47.635Z,0.00
2022-10-02T00:11:47.560Z,0.00
2022-10-02T00:16:47.568Z,0.00
2022-10-02T00:21:47.489Z,0.00
2022-10-02T00:26:47.373Z,0.00
2022-10-02T00:31:47.345Z,0.00
2022-10-02T00:36:47.232Z,0.00
2022-10-02T00:41:47.178Z,0.00
2022-10-02T00:46:47.134Z,0.00
2022-10-02T00:51:47.078Z,0.00
2022-10-02T00:56:46.970Z,0.00
2022-10-02T01:01:46.985Z,0.00
2022-10-02T01:06:47.037Z,0.00
2022-10-02T01:11:46.851Z,0.00
2022-10-02T01:16:46.844Z,0.00
2022-10-02T01:21:46.635Z,0.00
2022-10-02T01:26:46.619Z,0.00
2022-10-02T01:31:46.536Z,0.00
2022-10-02T01:36:46.445Z,0.00
2022-10-02T01:41:46.365Z,0.00
2022-10-02T01:46:46.342Z,0.00
2022-10-02T01:51:46.230Z,0.00
2022-10-02T01:56:46.278Z,0.00
2022-10-02T02:01:46.176Z,0.00
2022-10-02T02:06:46.055Z,0.00
2022-10-02T02:11:46.121Z,0.00
2022-10-02T02:16:45.987Z,0.00
2022-10-02T02:21:45.848Z,0.00
2022-10-02T02:26:45.880Z,0.00
2022-10-02T02:31:45.770Z,0.00
2022-10-02T02:36:45.653Z,0.00
2022-10-02T02:41:45.565Z,0.00
2022-10-02T02:46:45.492Z,0.00
2022-10-02T02:51:45.444Z,0.00
2022-10-02T02:56:45.376Z,0.00
2022-10-02T03:01:45.338Z,0.00
2022-10-02T03:06:45.238Z,0.00
2022-10-02T03:11:45.179Z,0.00
2022-10-02T03:16:45.141Z,0.00
2022-10-02T03:21:45.055Z,0.00
2022-10-02T03:26:44.969Z,0.00
2022-10-02T03:31:44.933Z,0.00
2022-10-02T03:36:44.832Z,0.00
2022-10-02T03:41:44.783Z,0.00
2022-10-02T03:46:44.758Z,0.00
2022-10-02T03:51:44.663Z,0.00
2022-10-02T03:56:44.584Z,0.00
2022-10-02T04:01:48.982Z,0.00
2022-10-02T04:06:44.435Z,0.00
2022-10-02T04:11:44.393Z,0.00
2022-10-02T04:16:44.360Z,0.00
2022-10-02T04:21:44.414Z,0.00
2022-10-02T04:26:44.179Z,0.00
2022-10-02T04:31:44.182Z,0.00
2022-10-02T04:36:44.051Z,4.00
2022-10-02T04:41:44.163Z,16.00
2022-10-02T04:46:43.919Z,40.00
2022-10-02T04:51:43.868Z,88.00
2022-10-02T04:56:43.782Z,148.00
2022-10-02T05:01:43.787Z,272.00
2022-10-02T05:06:43.664Z,476.00
2022-10-02T05:11:43.597Z,732.00
2022-10-02T05:16:43.590Z,1044.00
2022-10-02T05:21:43.472Z,1396.00
2022-10-02T05:26:43.450Z,1816.00
2022-10-02T05:31:43.463Z,2316.00
2022-10-02T05:36:43.292Z,3140.00
2022-10-02T05:41:43.234Z,4184.00
2022-10-02T05:46:43.174Z,5892.00
2022-10-02T05:51:43.076Z,6224.00
2022-10-02T05:56:43.002Z,14304.00
2022-10-02T06:01:42.958Z,5616.00
2022-10-02T06:06:42.877Z,6576.00
2022-10-02T06:11:42.814Z,4796.00
2022-10-02T06:16:42.842Z,5668.00
2022-10-02T06:21:42.671Z,18016.00
2022-10-02T06:26:42.603Z,51072.00
2022-10-02T06:31:42.684Z,53280.00
2022-10-02T06:36:42.472Z,57760.00
2022-10-02T06:41:42.389Z,58944.00
2022-10-02T06:46:42.373Z,62496.00
2022-10-02T06:51:42.317Z,65472.00
2022-10-02T06:56:42.217Z,67264.00
2022-10-02T07:01:42.205Z,70432.00
2022-10-02T07:06:42.087Z,70176.00
2022-10-02T07:11:42.041Z,59072.00
2022-10-02T07:16:42.045Z,68512.00
2022-10-02T07:21:41.896Z,69024.00
2022-10-02T07:26:41.840Z,70240.00
2022-10-02T07:31:41.842Z,73120.00
2022-10-02T07:36:41.741Z,73248.00
2022-10-02T07:41:41.683Z,73600.00
2022-10-02T07:46:41.611Z,75872.00
2022-10-02T07:51:41.544Z,76480.00
2022-10-02T07:56:41.445Z,65312.00
2022-10-02T08:01:41.454Z,42720.00
2022-10-02T08:06:41.316Z,71872.00
2022-10-02T08:11:41.257Z,74048.00
2022-10-02T08:16:41.345Z,67360.00
2022-10-02T08:21:41.145Z,15904.00
2022-10-02T08:26:41.472Z,27168.00
2022-10-02T08:31:41.170Z,16192.00
2022-10-02T08:36:41.066Z,13168.00
2022-10-02T08:41:41.024Z,13364.00
2022-10-02T08:46:40.825Z,11972.00
2022-10-02T08:51:40.742Z,11460.00
2022-10-02T08:56:40.686Z,10040.00
2022-10-02T09:01:40.596Z,10536.00
2022-10-02T09:06:40.546Z,9736.00
2022-10-02T09:11:40.480Z,10280.00
2022-10-02T09:16:40.740Z,12036.00
2022-10-02T09:21:40.352Z,9308.00
2022-10-02T09:26:40.280Z,13116.00
2022-10-02T09:31:40.323Z,11860.00
2022-10-02T09:36:40.162Z,13892.00
2022-10-02T09:41:40.155Z,14060.00
2022-10-02T09:46:40.340Z,8704.00
2022-10-02T09:51:39.970Z,6116.00
2022-10-02T10:52:32.311Z,7724.00
2022-10-02T10:57:32.134Z,9368.00
2022-10-02T11:02:32.276Z,7068.00
2022-10-02T11:07:31.972Z,6968.00
2022-10-02T11:12:31.911Z,6124.00
2022-10-02T11:17:31.870Z,7364.00
2022-10-02T11:22:31.789Z,7308.00
2022-10-02T11:27:31.710Z,6856.00
2022-10-02T11:32:31.647Z,7032.00
2022-10-02T11:37:31.615Z,7464.00
2022-10-02T11:42:31.524Z,7344.00
2022-10-02T11:47:31.460Z,8296.00
2022-10-02T11:52:31.412Z,8088.00
2022-10-02T11:57:31.349Z,8396.00
2022-10-02T12:02:31.342Z,7592.00
2022-10-02T12:07:31.244Z,7376.00
2022-10-02T12:12:31.123Z,8256.00
2022-10-02T12:17:31.071Z,7504.00
2022-10-02T12:22:31.005Z,7168.00
2022-10-02T12:27:30.965Z,7336.00
2022-10-02T12:32:30.877Z,7984.00
2022-10-02T12:37:30.806Z,8308.00
2022-10-02T12:42:30.793Z,7200.00
2022-10-02T12:47:30.686Z,6848.00
2022-10-02T12:52:30.609Z,7160.00
2022-10-02T12:57:32.609Z,6880.00
2022-10-02T13:02:49.468Z,6800.00
2022-10-02T13:07:31.410Z,5440.00
2022-10-02T13:12:30.554Z,6272.00
2022-10-02T13:17:30.408Z,5720.00
2022-10-02T13:22:30.224Z,6512.00
2022-10-02T13:27:31.676Z,8680.00
2022-10-02T13:32:30.100Z,10616.00
2022-10-02T13:37:30.051Z,5260.00
2022-10-02T13:42:29.982Z,4240.00
2022-10-02T13:47:29.908Z,4748.00
2022-10-02T13:52:29.899Z,6572.00
2022-10-02T13:57:29.766Z,6468.00
2022-10-02T14:02:29.705Z,6204.00
2022-10-02T14:07:29.685Z,6440.00
2022-10-02T14:12:29.580Z,6248.00
2022-10-02T14:17:29.544Z,4724.00
2022-10-02T14:22:29.454Z,3476.00
2022-10-02T14:27:29.392Z,1684.00
2022-10-02T14:32:29.325Z,1064.00
2022-10-02T14:37:29.238Z,628.00
2022-10-02T14:42:29.185Z,1732.00
2022-10-02T14:47:29.119Z,2376.00
2022-10-02T14:52:29.044Z,3124.00
2022-10-02T14:57:28.979Z,3568.00
2022-10-02T15:02:28.914Z,3492.00
2022-10-02T15:07:29.001Z,3564.00
2022-10-02T15:12:28.773Z,3516.00
2022-10-02T15:17:28.712Z,3092.00
2022-10-02T15:22:28.648Z,2924.00
2022-10-02T15:27:28.572Z,2832.00
2022-10-02T15:32:28.525Z,2668.00
2022-10-02T15:37:28.442Z,2580.00
2022-10-02T15:42:28.363Z,2472.00
2022-10-02T15:47:28.314Z,2300.00
2022-10-02T15:52:28.251Z,2136.00
2022-10-02T15:57:28.215Z,1960.00
2022-10-02T16:02:28.199Z,1772.00
2022-10-02T16:07:28.085Z,1592.00
2022-10-02T16:12:28.178Z,1352.00
2022-10-02T16:17:27.930Z,1140.00
2022-10-02T16:22:28.026Z,800.00
2022-10-02T16:27:27.787Z,584.00
2022-10-02T16:32:27.728Z,396.00
2022-10-02T16:37:27.723Z,256.00
2022-10-02T16:42:27.657Z,152.00
2022-10-02T16:47:27.549Z,84.00
2022-10-02T16:52:27.669Z,32.00
2022-10-02T16:57:27.459Z,12.00
2022-10-02T17:02:27.664Z,4.00
2022-10-02T17:07:27.268Z,0.00
2022-10-02T17:12:27.267Z,0.00
2022-10-02T17:17:27.141Z,0.00
2022-10-02T17:22:27.490Z,0.00
2022-10-02T17:27:26.976Z,0.00
2022-10-02T17:32:26.935Z,0.00
2022-10-02T17:37:26.849Z,0.00
2022-10-02T17:42:26.793Z,0.00
2022-10-02T17:47:26.737Z,0.00
2022-10-02T17:52:26.687Z,0.00
2022-10-02T17:57:26.668Z,0.00
2022-10-02T18:02:26.686Z,0.00
2022-10-02T18:07:26.439Z,0.00
2022-10-02T18:12:27.470Z,0.00
2022-10-02T18:17:26.313Z,0.00
2022-10-02T18:22:26.412Z,0.00
2022-10-02T18:27:26.189Z,0.00
2022-10-02T18:32:26.184Z,0.00
2022-10-02T18:37:26.093Z,0.00
2022-10-02T18:42:26.037Z,0.00
2022-10-02T18:47:25.998Z,0.00
2022-10-02T18:52:25.929Z,0.00
2022-10-02T18:57:25.893Z,0.00
2022-10-02T19:02:25.762Z,0.00
2022-10-02T19:07:25.689Z,0.00
2022-10-02T19:12:25.606Z,0.00
2022-10-02T19:17:25.663Z,0.00
2022-10-02T19:22:25.476Z,0.00
2022-10-02T19:27:25.620Z,0.00
2022-10-02T19:32:25.341Z,0.00
2022-10-02T19:37:25.270Z,0.00
2022-10-02T19:42:25.227Z,0.00
2022-10-02T19:47:25.138Z,0.00
2022-10-02T19:52:25.088Z,0.00
2022-10-02T19:57:25.003Z,0.00
2022-10-02T20:02:24.995Z,0.00
2022-10-02T20:07:24.925Z,0.00
2022-10-02T20:12:24.805Z,0.00
2022-10-02T20:17:24.755Z,0.00
2022-10-02T20:22:24.668Z,0.00
2022-10-02T20:27:24.621Z,0.00
2022-10-02T20:32:24.726Z,0.00
2022-10-02T20:37:24.483Z,0.00
2022-10-02T20:42:24.411Z,0.00
2022-10-02T20:47:24.335Z,0.00
2022-10-02T20:52:24.285Z,0.00
2022-10-02T20:57:37.963Z,0.00
2022-10-02T21:02:25.197Z,0.00
2022-10-02T21:07:24.085Z,0.00
2022-10-02T21:12:24.404Z,0.00
2022-10-02T21:17:23.977Z,0.00
2022-10-02T21:22:23.911Z,0.00
2022-10-02T21:27:23.901Z,0.00
2022-10-02T21:32:23.762Z,0.00
2022-10-02T21:37:23.852Z,0.00
2022-10-02T21:42:23.705Z,0.00
2022-10-02T21:47:23.857Z,0.00
2022-10-02T21:52:23.489Z,0.00
2022-10-02T21:57:23.454Z,0.00
2022-10-02T22:02:23.379Z,0.00
2022-10-02T22:07:23.296Z,0.00
2022-10-02T22:12:23.207Z,0.00
2022-10-02T22:17:23.134Z,0.00
2022-10-02T22:22:23.082Z,0.00
2022-10-02T22:27:23.003Z,0.00
2022-10-02T22:32:22.944Z,0.00
2022-10-02T22:37:22.913Z,0.00
2022-10-02T22:42:22.796Z,0.00
2022-10-02T22:47:22.756Z,0.00
2022-10-02T22:52:22.701Z,0.00
2022-10-02T22:57:22.603Z,0.00
2022-10-02T23:02:22.627Z,0.00
2022-10-02T23:07:22.486Z,0.00
2022-10-02T23:12:26.611Z,0.00
2022-10-02T23:17:23.671Z,0.00
2022-10-02T23:22:22.263Z,0.00
2022-10-02T23:27:22.206Z,0.00
2022-10-02T23:32:22.173Z,0.00
2022-10-02T23:37:22.110Z,0.00
2022-10-02T23:42:22.026Z,0.00
2022-10-02T23:47:22.008Z,0.00
2022-10-02T23:52:21.952Z,0.00
2022-10-02T23:57:21.867Z,0.00
